Time;durP1;ratioP1;P1;durP2;ratioP2;P2;SDS_P1;SDS_P2;PMS_P1;PMS_P2;Temp;Humidity;BMP_temperature;BMP_pressure;BME280_temperature;BME280_humidity;BME280_pressure;Samples;Min_cycle;Max_cycle;Signal;HPM_P1;HPM_P2
2022/06/11 00:00:41;;;;;;;0.10;0.10;;;;;;;;;;5047019;28;20558;-69
2022/06/11 00:03:10;;;;;;;0.00;0.00;;;;;;;;;;5043616;28;20176;-68
2022/06/11 00:05:40;;;;;;;0.10;0.10;;;;;;;;;;5046932;28;20547;-69
2022/06/11 00:08:09;;;;;;;0.00;0.00;;;;;;;;;;5047905;28;20568;-69
2022/06/11 00:10:37;;;;;;;0.20;0.20;;;;;;;;;;5048600;28;20069;-69
2022/06/11 00:13:07;;;;;;;0.03;0.03;;;;;;;;;;5045783;28;20071;-70
2022/06/11 00:15:37;;;;;;;0.00;0.00;;;;;;;;;;5048378;28;20080;-70
2022/06/11 00:18:06;;;;;;;0.00;0.00;;;;;;;;;;5048660;28;20080;-70
2022/06/11 00:20:34;;;;;;;0.15;0.15;;;;;;;;;;5044227;28;21320;-70
2022/06/11 00:23:03;;;;;;;0.40;0.40;;;;;;;;;;5047729;28;21168;-70
2022/06/11 00:25:32;;;;;;;0.13;0.13;;;;;;;;;;5040097;28;20424;-70
2022/06/11 00:28:01;;;;;;;0.00;0.00;;;;;;;;;;5046586;28;20057;-70
2022/06/11 00:30:30;;;;;;;0.20;0.20;;;;;;;;;;5044212;28;20151;-70
2022/06/11 00:32:59;;;;;;;0.13;0.13;;;;;;;;;;5046602;28;20053;-70
2022/06/11 00:35:30;;;;;;;0.43;0.43;;;;;;;;;;5048190;28;20045;-70
2022/06/11 00:37:58;;;;;;;0.00;0.00;;;;;;;;;;5044932;28;20132;-70
2022/06/11 00:40:27;;;;;;;0.43;0.40;;;;;;;;;;5043880;28;20072;-69
2022/06/11 00:42:56;;;;;;;0.00;0.00;;;;;;;;;;5048600;28;20056;-70
2022/06/11 00:45:29;;;;;;;0.00;0.00;;;;;;;;;;5047450;28;20508;-70
2022/06/11 00:48:00;;;;;;;0.00;0.00;;;;;;;;;;5045166;28;20052;-70
2022/06/11 00:50:33;;;;;;;0.98;0.50;;;;;;;;;;5045402;28;20075;-70
2022/06/11 00:53:02;;;;;;;0.10;0.10;;;;;;;;;;5040953;28;20103;-70
2022/06/11 00:55:32;;;;;;;0.00;0.00;;;;;;;;;;5047263;28;20083;-69
2022/06/11 00:58:02;;;;;;;0.10;0.10;;;;;;;;;;5046372;28;20047;-70
2022/06/11 01:00:32;;;;;;;0.00;0.00;;;;;;;;;;5047893;28;20037;-70
2022/06/11 01:03:02;;;;;;;0.00;0.00;;;;;;;;;;5047594;28;20051;-69
2022/06/11 01:05:33;;;;;;;0.50;0.50;;;;;;;;;;5044679;28;20052;-70
2022/06/11 01:08:07;;;;;;;0.13;0.13;;;;;;;;;;5039681;28;20586;-71
2022/06/11 01:10:54;;;;;;;0.00;0.00;;;;;;;;;;5047799;28;20523;-70
2022/06/11 01:13:31;;;;;;;0.10;0.10;;;;;;;;;;5045758;28;20297;-69
2022/06/11 01:16:05;;;;;;;0.00;0.00;;;;;;;;;;5038959;28;20085;-70
2022/06/11 01:18:40;;;;;;;0.10;0.10;;;;;;;;;;5045813;28;20051;-69
2022/06/11 01:21:13;;;;;;;0.35;0.35;;;;;;;;;;5045850;28;20132;-69
2022/06/11 01:24:08;;;;;;;0.10;0.10;;;;;;;;;;5044185;28;20059;-70
2022/06/11 01:26:53;;;;;;;0.10;0.10;;;;;;;;;;5047999;28;20128;-70
2022/06/11 01:29:39;;;;;;;0.00;0.00;;;;;;;;;;5026922;28;20106;-70
2022/06/11 01:32:12;;;;;;;0.05;0.05;;;;;;;;;;5031142;28;20083;-70
2022/06/11 01:34:43;;;;;;;0.30;0.30;;;;;;;;;;5045341;28;20049;-70
2022/06/11 01:37:18;;;;;;;0.10;0.10;;;;;;;;;;5047521;28;20053;-70
2022/06/11 01:39:50;;;;;;;0.22;0.22;;;;;;;;;;5044572;28;20512;-70
2022/06/11 01:42:21;;;;;;;0.03;0.03;;;;;;;;;;5047041;28;20055;-70
2022/06/11 01:45:00;;;;;;;0.28;0.25;;;;;;;;;;5045290;28;20132;-70
2022/06/11 01:47:32;;;;;;;0.00;0.00;;;;;;;;;;5039187;28;20053;-70
2022/06/11 01:50:00;;;;;;;0.00;0.00;;;;;;;;;;5046645;28;20498;-70
2022/06/11 01:52:46;;;;;;;0.00;0.00;;;;;;;;;;5042054;28;20095;-70
2022/06/11 01:55:19;;;;;;;0.10;0.10;;;;;;;;;;5027480;28;20069;-69
2022/06/11 01:58:00;;;;;;;0.00;0.00;;;;;;;;;;5037403;28;20124;-70
2022/06/11 02:00:30;;;;;;;0.00;0.00;;;;;;;;;;5023772;28;20677;-68
2022/06/11 02:03:11;;;;;;;0.00;0.00;;;;;;;;;;5022832;28;20045;-68
2022/06/11 02:05:45;;;;;;;0.30;0.30;;;;;;;;;;5034439;28;20068;-69
2022/06/11 02:08:19;;;;;;;0.57;0.57;;;;;;;;;;5026426;28;20053;-69
2022/06/11 02:10:50;;;;;;;0.30;0.30;;;;;;;;;;5025844;28;20093;-69
2022/06/11 02:13:24;;;;;;;0.00;0.00;;;;;;;;;;5029562;28;20049;-70
2022/06/11 02:15:54;;;;;;;0.10;0.10;;;;;;;;;;5030946;28;20140;-70
2022/06/11 02:18:26;;;;;;;1.40;0.57;;;;;;;;;;5029436;28;20148;-70
2022/06/11 02:20:57;;;;;;;0.25;0.25;;;;;;;;;;5029490;28;20127;-69
2022/06/11 02:23:29;;;;;;;1.20;1.10;;;;;;;;;;5026170;28;20514;-70
2022/06/11 02:25:59;;;;;;;0.00;0.00;;;;;;;;;;5029462;28;20140;-70
2022/06/11 02:28:29;;;;;;;0.00;0.00;;;;;;;;;;5026236;28;20124;-70
2022/06/11 02:30:59;;;;;;;0.00;0.00;;;;;;;;;;5028278;28;20048;-69
2022/06/11 02:33:31;;;;;;;0.10;0.10;;;;;;;;;;5027265;28;20052;-69
2022/06/11 02:36:02;;;;;;;0.00;0.00;;;;;;;;;;5038950;28;20132;-69
2022/06/11 02:38:34;;;;;;;0.17;0.17;;;;;;;;;;5029729;28;20121;-69
2022/06/11 02:41:08;;;;;;;0.00;0.00;;;;;;;;;;5031429;28;20092;-68
2022/06/11 02:43:36;;;;;;;0.07;0.07;;;;;;;;;;5032232;28;20065;-69
2022/06/11 02:48:53;;;;;;;0.00;0.00;;;;;;;;;;5024724;28;20045;-70
2022/06/11 02:51:22;;;;;;;0.00;0.00;;;;;;;;;;5031192;28;20124;-70
2022/06/11 02:53:50;;;;;;;0.00;0.00;;;;;;;;;;5028307;28;20136;-70
2022/06/11 02:56:19;;;;;;;0.00;0.00;;;;;;;;;;5028554;28;20108;-70
2022/06/11 02:58:47;;;;;;;0.08;0.08;;;;;;;;;;5032568;28;20136;-70
2022/06/11 03:01:18;;;;;;;0.00;0.00;;;;;;;;;;5031169;28;20049;-70
2022/06/11 03:03:49;;;;;;;0.00;0.00;;;;;;;;;;5031031;28;20534;-70
2022/06/11 03:06:19;;;;;;;0.00;0.00;;;;;;;;;;5032266;28;20076;-70
2022/06/11 03:08:48;;;;;;;0.10;0.10;;;;;;;;;;5030763;28;20140;-69
2022/06/11 03:11:17;;;;;;;0.00;0.00;;;;;;;;;;5033152;28;20128;-70
2022/06/11 03:13:45;;;;;;;0.30;0.30;;;;;;;;;;5027881;28;20057;-70
2022/06/11 03:16:14;;;;;;;0.03;0.03;;;;;;;;;;5030690;28;20404;-70
2022/06/11 03:18:42;;;;;;;0.17;0.17;;;;;;;;;;5030878;28;20076;-70
2022/06/11 03:21:11;;;;;;;0.10;0.10;;;;;;;;;;5027561;28;20082;-69
2022/06/11 03:23:41;;;;;;;0.00;0.00;;;;;;;;;;5026744;28;20540;-69
2022/06/11 03:26:10;;;;;;;0.00;0.00;;;;;;;;;;5028543;28;20060;-69
2022/06/11 03:28:38;;;;;;;0.05;0.05;;;;;;;;;;5028630;28;20042;-69
2022/06/11 03:31:09;;;;;;;0.00;0.00;;;;;;;;;;5028584;28;20497;-69
2022/06/11 03:33:39;;;;;;;0.10;0.10;;;;;;;;;;5028320;28;20523;-69
2022/06/11 03:36:09;;;;;;;0.00;0.00;;;;;;;;;;5028071;28;20051;-69
2022/06/11 03:38:39;;;;;;;0.08;0.08;;;;;;;;;;5029626;28;20505;-68
2022/06/11 03:41:12;;;;;;;0.15;0.15;;;;;;;;;;5027248;28;20128;-68
2022/06/11 03:43:40;;;;;;;0.00;0.00;;;;;;;;;;5027680;28;20132;-69
2022/06/11 03:46:09;;;;;;;0.00;0.00;;;;;;;;;;5029132;28;20087;-69
2022/06/11 03:48:39;;;;;;;0.40;0.40;;;;;;;;;;5029686;28;20104;-70
2022/06/11 03:51:09;;;;;;;0.00;0.00;;;;;;;;;;5025847;28;20064;-69
2022/06/11 03:53:38;;;;;;;0.15;0.15;;;;;;;;;;5023124;28;20053;-69
2022/06/11 03:56:10;;;;;;;0.10;0.10;;;;;;;;;;5031676;28;20052;-70
2022/06/11 03:58:41;;;;;;;0.00;0.00;;;;;;;;;;5023648;28;20049;-70
2022/06/11 04:01:16;;;;;;;1.17;0.90;;;;;;;;;;5014893;28;21281;-69
2022/06/11 04:03:45;;;;;;;0.10;0.10;;;;;;;;;;4998613;28;20050;-69
2022/06/11 04:06:14;;;;;;;0.00;0.00;;;;;;;;;;4992692;28;20060;-70
2022/06/11 04:08:43;;;;;;;0.10;0.10;;;;;;;;;;4993206;28;20140;-69
2022/06/11 04:11:12;;;;;;;0.05;0.05;;;;;;;;;;4999207;28;20164;-69
2022/06/11 04:13:43;;;;;;;0.00;0.00;;;;;;;;;;4995442;28;20549;-70
2022/06/11 04:16:20;;;;;;;0.45;0.45;;;;;;;;;;5018953;28;20565;-69
2022/06/11 04:18:48;;;;;;;0.32;0.32;;;;;;;;;;5022976;28;20522;-69
2022/06/11 04:21:17;;;;;;;0.00;0.00;;;;;;;;;;5022445;28;20051;-69
2022/06/11 04:23:47;;;;;;;0.00;0.00;;;;;;;;;;5031807;28;20132;-69
2022/06/11 04:26:17;;;;;;;0.10;0.10;;;;;;;;;;5022118;28;20038;-69
2022/06/11 04:28:47;;;;;;;0.08;0.08;;;;;;;;;;5031318;28;20044;-69
2022/06/11 04:31:16;;;;;;;0.47;0.47;;;;;;;;;;5026565;28;20057;-69
2022/06/11 04:33:47;;;;;;;0.10;0.10;;;;;;;;;;5034507;28;20048;-69
2022/06/11 04:36:16;;;;;;;0.10;0.10;;;;;;;;;;5022513;28;20477;-69
2022/06/11 04:38:45;;;;;;;0.00;0.00;;;;;;;;;;5030487;28;20048;-69
2022/06/11 04:41:13;;;;;;;0.00;0.00;;;;;;;;;;5025248;28;20489;-69
2022/06/11 04:43:43;;;;;;;0.00;0.00;;;;;;;;;;5029064;28;20069;-69
2022/06/11 04:46:13;;;;;;;0.00;0.00;;;;;;;;;;5022581;28;20045;-69
2022/06/11 04:48:42;;;;;;;0.45;0.45;;;;;;;;;;5015079;28;20117;-69
2022/06/11 04:51:13;;;;;;;0.00;0.00;;;;;;;;;;5019788;28;20112;-69
2022/06/11 04:53:44;;;;;;;0.00;0.00;;;;;;;;;;5042492;28;20554;-68
2022/06/11 04:56:14;;;;;;;0.00;0.00;;;;;;;;;;5048521;28;20515;-69
2022/06/11 04:58:44;;;;;;;0.10;0.10;;;;;;;;;;5045919;28;20080;-69
2022/06/11 05:01:14;;;;;;;0.00;0.00;;;;;;;;;;5046631;28;20080;-69
2022/06/11 05:03:43;;;;;;;0.10;0.10;;;;;;;;;;5047192;28;20049;-69
2022/06/11 05:06:12;;;;;;;0.30;0.30;;;;;;;;;;5046053;28;20056;-70
2022/06/11 05:08:41;;;;;;;0.10;0.10;;;;;;;;;;5046015;28;20144;-69
2022/06/11 05:11:09;;;;;;;0.38;0.38;;;;;;;;;;5047228;28;20072;-69
2022/06/11 05:13:38;;;;;;;0.00;0.00;;;;;;;;;;5051266;28;20132;-69
2022/06/11 05:16:09;;;;;;;0.00;0.00;;;;;;;;;;5046076;28;20045;-69
2022/06/11 05:18:39;;;;;;;1.65;1.55;;;;;;;;;;5045514;28;20469;-69
2022/06/11 05:21:11;;;;;;;0.00;0.00;;;;;;;;;;5044616;28;20502;-69
2022/06/11 05:23:39;;;;;;;0.00;0.00;;;;;;;;;;5049350;28;20057;-69
2022/06/11 05:26:14;;;;;;;;;;;;;;;;;;5048746;28;20092;-69
2022/06/11 05:28:42;;;;;;;0.00;0.00;;;;;;;;;;5042410;28;19999;-68
2022/06/11 05:31:11;;;;;;;0.00;0.00;;;;;;;;;;5045989;28;20044;-68
2022/06/11 05:33:41;;;;;;;0.00;0.00;;;;;;;;;;5040766;28;20071;-69
2022/06/11 05:36:10;;;;;;;0.10;0.10;;;;;;;;;;5044632;28;20508;-69
2022/06/11 05:38:38;;;;;;;0.00;0.00;;;;;;;;;;5045908;28;20049;-69
2022/06/11 05:41:10;;;;;;;0.13;0.13;;;;;;;;;;5046979;28;20044;-69
2022/06/11 05:43:38;;;;;;;0.00;0.00;;;;;;;;;;5046892;28;20128;-69
2022/06/11 05:46:11;;;;;;;0.00;0.00;;;;;;;;;;5045770;28;20072;-69
2022/06/11 05:48:43;;;;;;;0.45;0.45;;;;;;;;;;5047347;28;20156;-69
2022/06/11 05:51:13;;;;;;;0.00;0.00;;;;;;;;;;5042038;28;20143;-69
2022/06/11 05:53:47;;;;;;;0.10;0.10;;;;;;;;;;5042269;28;20053;-69
2022/06/11 05:56:16;;;;;;;0.10;0.10;;;;;;;;;;5047772;28;20141;-69
2022/06/11 05:58:46;;;;;;;0.10;0.10;;;;;;;;;;5049398;28;20100;-69
2022/06/11 06:01:16;;;;;;;0.00;0.00;;;;;;;;;;5050855;28;20584;-69
2022/06/11 06:03:45;;;;;;;0.00;0.00;;;;;;;;;;5053980;28;20045;-69
2022/06/11 06:06:14;;;;;;;0.10;0.10;;;;;;;;;;5046298;28;20071;-69
2022/06/11 06:08:44;;;;;;;0.10;0.10;;;;;;;;;;5050523;28;20056;-69
2022/06/11 06:11:12;;;;;;;0.65;0.63;;;;;;;;;;5051769;28;20088;-69
2022/06/11 06:13:47;;;;;;;0.00;0.00;;;;;;;;;;5051352;28;20069;-69
2022/06/11 06:16:16;;;;;;;0.00;0.00;;;;;;;;;;5050601;28;20049;-69
2022/06/11 06:18:46;;;;;;;0.00;0.00;;;;;;;;;;5051538;28;20052;-69
2022/06/11 06:21:15;;;;;;;0.10;0.10;;;;;;;;;;5049271;28;20041;-69
2022/06/11 06:23:43;;;;;;;0.38;0.38;;;;;;;;;;5049857;28;20084;-69
2022/06/11 06:26:11;;;;;;;0.00;0.00;;;;;;;;;;5048601;28;20077;-69
2022/06/11 06:28:41;;;;;;;0.45;0.45;;;;;;;;;;5049732;28;20045;-69
2022/06/11 06:31:10;;;;;;;0.00;0.00;;;;;;;;;;5043536;28;20713;-69
2022/06/11 06:33:39;;;;;;;0.15;0.15;;;;;;;;;;5048769;28;20458;-69
2022/06/11 06:36:10;;;;;;;0.00;0.00;;;;;;;;;;5047277;28;20053;-69
2022/06/11 06:38:39;;;;;;;0.10;0.10;;;;;;;;;;5047543;28;20075;-69
2022/06/11 06:41:10;;;;;;;0.00;0.00;;;;;;;;;;5047824;28;20493;-69
2022/06/11 06:43:39;;;;;;;0.00;0.00;;;;;;;;;;5044203;28;20054;-69
2022/06/11 06:46:11;;;;;;;0.00;0.00;;;;;;;;;;5045151;28;20102;-69
2022/06/11 06:48:39;;;;;;;0.00;0.00;;;;;;;;;;5048610;28;20543;-69
2022/06/11 06:51:12;;;;;;;0.00;0.00;;;;;;;;;;5041179;28;20137;-69
2022/06/11 06:53:42;;;;;;;0.52;0.52;;;;;;;;;;5044174;28;20099;-69
2022/06/11 06:56:11;;;;;;;0.00;0.00;;;;;;;;;;5043517;28;20600;-69
2022/06/11 06:58:40;;;;;;;0.00;0.00;;;;;;;;;;5042430;28;20059;-69
2022/06/11 07:01:09;;;;;;;0.00;0.00;;;;;;;;;;5042794;28;20049;-69
2022/06/11 07:03:37;;;;;;;0.00;0.00;;;;;;;;;;5044119;28;20045;-69
2022/06/11 07:06:09;;;;;;;0.03;0.03;;;;;;;;;;5035694;28;20056;-69
2022/06/11 07:08:39;;;;;;;0.20;0.20;;;;;;;;;;5039680;28;20583;-69
2022/06/11 07:11:08;;;;;;;0.00;0.00;;;;;;;;;;5027117;28;20533;-68
2022/06/11 07:13:36;;;;;;;0.17;0.17;;;;;;;;;;5041183;28;20140;-69
2022/06/11 07:16:11;;;;;;;0.63;0.63;;;;;;;;;;5044181;28;20103;-69
2022/06/11 07:18:42;;;;;;;0.00;0.00;;;;;;;;;;5049716;28;20059;-70
2022/06/11 07:21:15;;;;;;;0.00;0.00;;;;;;;;;;5042468;28;20496;-70
2022/06/11 07:23:47;;;;;;;0.10;0.10;;;;;;;;;;5050603;28;20040;-69
2022/06/11 07:26:17;;;;;;;0.15;0.15;;;;;;;;;;5046585;28;20088;-69
2022/06/11 07:28:47;;;;;;;0.40;0.40;;;;;;;;;;5042302;28;20140;-69
2022/06/11 07:31:16;;;;;;;0.00;0.00;;;;;;;;;;5044511;28;20110;-69
2022/06/11 07:33:45;;;;;;;0.00;0.00;;;;;;;;;;5045116;28;20049;-70
2022/06/11 07:36:14;;;;;;;0.00;0.00;;;;;;;;;;5039296;28;20049;-69
2022/06/11 07:38:42;;;;;;;0.10;0.10;;;;;;;;;;5040102;28;20679;-70
2022/06/11 07:41:13;;;;;;;0.00;0.00;;;;;;;;;;5042472;28;20686;-68
2022/06/11 07:43:41;;;;;;;0.00;0.00;;;;;;;;;;5048858;28;20559;-68
2022/06/11 07:46:09;;;;;;;0.00;0.00;;;;;;;;;;5045062;28;20048;-68
2022/06/11 07:48:38;;;;;;;0.17;0.17;;;;;;;;;;5041351;28;20385;-68
2022/06/11 07:51:09;;;;;;;0.00;0.00;;;;;;;;;;5045065;28;20550;-68
2022/06/11 07:53:39;;;;;;;0.00;0.00;;;;;;;;;;5038276;28;20124;-68
2022/06/11 07:56:14;;;;;;;0.00;0.00;;;;;;;;;;5038813;28;20444;-69
2022/06/11 07:58:42;;;;;;;;;;;;;;;;;;5039459;28;20759;-68
2022/06/11 08:01:10;;;;;;;0.00;0.00;;;;;;;;;;5042462;28;20536;-68
2022/06/11 08:03:40;;;;;;;0.00;0.00;;;;;;;;;;5036387;28;20053;-68
2022/06/11 08:06:09;;;;;;;0.03;0.03;;;;;;;;;;5040995;28;20089;-68
2022/06/11 08:08:38;;;;;;;0.13;0.13;;;;;;;;;;5042151;28;20146;-68
2022/06/11 08:11:09;;;;;;;0.00;0.00;;;;;;;;;;5038908;28;20045;-68
2022/06/11 08:13:39;;;;;;;1.35;1.05;;;;;;;;;;5037574;28;20049;-68
2022/06/11 08:16:10;;;;;;;0.00;0.00;;;;;;;;;;5036942;28;20049;-69
2022/06/11 08:18:39;;;;;;;0.05;0.05;;;;;;;;;;5041116;28;20132;-68
2022/06/11 08:21:11;;;;;;;0.00;0.00;;;;;;;;;;5042394;28;20103;-68
2022/06/11 08:23:41;;;;;;;0.00;0.00;;;;;;;;;;5042889;28;20087;-69
2022/06/11 08:26:10;;;;;;;0.00;0.00;;;;;;;;;;5048106;28;20049;-68
2022/06/11 08:28:40;;;;;;;0.10;0.10;;;;;;;;;;5048130;28;20576;-68
2022/06/11 08:31:09;;;;;;;0.00;0.00;;;;;;;;;;5040360;28;20514;-70
2022/06/11 08:33:38;;;;;;;0.00;0.00;;;;;;;;;;5044686;28;20056;-69
2022/06/11 08:36:09;;;;;;;0.20;0.20;;;;;;;;;;5048496;28;20106;-68
2022/06/11 08:38:37;;;;;;;0.10;0.10;;;;;;;;;;5045624;28;20168;-69
2022/06/11 08:41:15;;;;;;;0.13;0.13;;;;;;;;;;5044886;28;20110;-69
2022/06/11 08:43:54;;;;;;;0.40;0.28;;;;;;;;;;5043750;28;20103;-69
2022/06/11 08:46:24;;;;;;;0.00;0.00;;;;;;;;;;5049208;28;20087;-68
2022/06/11 08:48:59;;;;;;;0.00;0.00;;;;;;;;;;5046075;28;20052;-71
2022/06/11 08:51:29;;;;;;;0.00;0.00;;;;;;;;;;5040366;28;20053;-70
2022/06/11 08:53:59;;;;;;;0.00;0.00;;;;;;;;;;5043820;28;20618;-69
2022/06/11 08:56:32;;;;;;;0.00;0.00;;;;;;;;;;5040624;28;20659;-68
2022/06/11 08:59:16;;;;;;;0.90;0.70;;;;;;;;;;5047499;28;20067;-69
2022/06/11 09:01:50;;;;;;;0.00;0.00;;;;;;;;;;5043046;28;20049;-69
2022/06/11 09:04:32;;;;;;;0.00;0.00;;;;;;;;;;5043177;28;20136;-68
2022/06/11 09:07:05;;;;;;;0.20;0.20;;;;;;;;;;5051349;28;20049;-69
2022/06/11 09:09:41;;;;;;;0.20;0.20;;;;;;;;;;5047875;28;20484;-68
2022/06/11 09:12:18;;;;;;;0.00;0.00;;;;;;;;;;5035458;28;20487;-67
2022/06/11 09:14:53;;;;;;;0.00;0.00;;;;;;;;;;5052618;28;20076;-67
2022/06/11 09:17:21;;;;;;;;;;;;;;;;;;5048697;28;20051;-68
2022/06/11 09:19:56;;;;;;;0.70;0.65;;;;;;;;;;5047734;28;19955;-68
2022/06/11 09:22:34;;;;;;;0.00;0.00;;;;;;;;;;5050454;28;20737;-68
2022/06/11 09:25:09;;;;;;;0.30;0.30;;;;;;;;;;5054500;28;20489;-68
2022/06/11 09:27:40;;;;;;;0.52;0.28;;;;;;;;;;5042803;28;20409;-68
2022/06/11 09:30:12;;;;;;;0.00;0.00;;;;;;;;;;5049292;28;20073;-69
2022/06/11 09:32:44;;;;;;;0.00;0.00;;;;;;;;;;5052491;28;20128;-70
2022/06/11 09:35:15;;;;;;;0.20;0.20;;;;;;;;;;5050679;28;20099;-69
2022/06/11 09:37:48;;;;;;;0.20;0.20;;;;;;;;;;5049233;28;20049;-70
2022/06/11 09:40:20;;;;;;;0.00;0.00;;;;;;;;;;5049343;28;20051;-70
2022/06/11 09:42:59;;;;;;;0.00;0.00;;;;;;;;;;5048110;28;20060;-69
2022/06/11 09:45:30;;;;;;;0.00;0.00;;;;;;;;;;5053234;28;20040;-69
2022/06/11 09:48:02;;;;;;;0.00;0.00;;;;;;;;;;5044005;28;20049;-68
2022/06/11 09:50:35;;;;;;;0.00;0.00;;;;;;;;;;5046049;28;20473;-68
2022/06/11 09:53:13;;;;;;;0.00;0.00;;;;;;;;;;5045892;28;20092;-68
2022/06/11 09:55:45;;;;;;;0.47;0.47;;;;;;;;;;5033578;28;20085;-68
2022/06/11 09:58:18;;;;;;;0.00;0.00;;;;;;;;;;5028480;28;20084;-69
2022/06/11 10:01:04;;;;;;;0.00;0.00;;;;;;;;;;5033496;28;20104;-69
2022/06/11 10:03:43;;;;;;;0.00;0.00;;;;;;;;;;5029613;28;20045;-67
2022/06/11 10:06:13;;;;;;;0.00;0.00;;;;;;;;;;5033803;28;20131;-67
2022/06/11 10:08:43;;;;;;;0.00;0.00;;;;;;;;;;5027406;28;20145;-67
2022/06/11 10:11:15;;;;;;;0.00;0.00;;;;;;;;;;5025502;28;21002;-67
2022/06/11 10:13:51;;;;;;;0.00;0.00;;;;;;;;;;5032308;28;20085;-69
2022/06/11 10:16:26;;;;;;;3.53;0.63;;;;;;;;;;5033602;28;20222;-67
2022/06/11 10:18:56;;;;;;;0.00;0.00;;;;;;;;;;5032530;28;20524;-67
2022/06/11 10:21:25;;;;;;;0.00;0.00;;;;;;;;;;5032001;28;20076;-68
2022/06/11 10:23:57;;;;;;;0.00;0.00;;;;;;;;;;5034991;28;20588;-67
2022/06/11 10:26:28;;;;;;;0.00;0.00;;;;;;;;;;5024275;28;20088;-67
2022/06/11 10:29:01;;;;;;;0.00;0.00;;;;;;;;;;5021114;28;20053;-68
2022/06/11 10:31:33;;;;;;;0.00;0.00;;;;;;;;;;5028662;28;20042;-67
2022/06/11 10:34:05;;;;;;;0.00;0.00;;;;;;;;;;5025917;28;20050;-67
2022/06/11 10:36:35;;;;;;;0.00;0.00;;;;;;;;;;5029502;28;20041;-67
2022/06/11 10:39:06;;;;;;;0.00;0.00;;;;;;;;;;5027472;28;20143;-67
2022/06/11 10:41:37;;;;;;;0.43;0.13;;;;;;;;;;5027617;28;20108;-68
2022/06/11 10:44:12;;;;;;;0.47;0.43;;;;;;;;;;5029002;28;20055;-69
2022/06/11 10:46:42;;;;;;;1.95;0.82;;;;;;;;;;5028761;28;20072;-68
2022/06/11 10:49:13;;;;;;;1.35;0.68;;;;;;;;;;5027364;28;20046;-70
2022/06/11 10:51:42;;;;;;;0.00;0.00;;;;;;;;;;5023818;28;20097;-69
2022/06/11 10:54:14;;;;;;;0.00;0.00;;;;;;;;;;5028997;28;20107;-70
2022/06/11 10:56:46;;;;;;;0.03;0.03;;;;;;;;;;5027972;28;20073;-71
2022/06/11 10:59:19;;;;;;;0.00;0.00;;;;;;;;;;5029645;28;20482;-71
2022/06/11 11:01:51;;;;;;;0.00;0.00;;;;;;;;;;5027764;28;20046;-70
2022/06/11 11:04:28;;;;;;;0.10;0.10;;;;;;;;;;5026886;28;21704;-70
2022/06/11 11:07:11;;;;;;;0.00;0.00;;;;;;;;;;5024846;28;20045;-73
2022/06/11 11:09:40;;;;;;;0.00;0.00;;;;;;;;;;5023527;28;20152;-73
2022/06/11 11:12:16;;;;;;;0.00;0.00;;;;;;;;;;5027984;28;20132;-72
2022/06/11 11:14:46;;;;;;;0.00;0.00;;;;;;;;;;5029433;28;20057;-73
2022/06/11 11:17:18;;;;;;;0.32;0.20;;;;;;;;;;5030133;28;20088;-73
2022/06/11 11:20:29;;;;;;;0.00;0.00;;;;;;;;;;5026081;28;20497;-73
2022/06/11 11:22:37;;;;;;;0.00;0.00;;;;;;;;;;5028502;28;20041;-73
2022/06/11 11:25:08;;;;;;;0.00;0.00;;;;;;;;;;5026452;28;20077;-73
2022/06/11 11:27:43;;;;;;;0.08;0.08;;;;;;;;;;5032849;28;20053;-72
2022/06/11 11:30:25;;;;;;;0.10;0.10;;;;;;;;;;5028088;28;20129;-73
2022/06/11 11:32:55;;;;;;;0.00;0.00;;;;;;;;;;5028216;28;20060;-75
2022/06/11 11:35:26;;;;;;;0.00;0.00;;;;;;;;;;5028200;28;20387;-77
2022/06/11 11:37:59;;;;;;;0.00;0.00;;;;;;;;;;5030227;28;20340;-75
2022/06/11 11:40:30;;;;;;;12.90;1.75;;;;;;;;;;5030120;28;20467;-74
2022/06/11 11:43:00;;;;;;;0.00;0.00;;;;;;;;;;5022556;28;20053;-76
2022/06/11 11:45:31;;;;;;;0.00;0.00;;;;;;;;;;5029383;28;20049;-74
2022/06/11 11:48:05;;;;;;;0.00;0.00;;;;;;;;;;5029696;28;20116;-76
2022/06/11 11:50:41;;;;;;;0.00;0.00;;;;;;;;;;5027902;28;20417;-73
2022/06/11 11:53:14;;;;;;;0.05;0.05;;;;;;;;;;5037497;28;20047;-74
2022/06/11 11:55:55;;;;;;;0.00;0.00;;;;;;;;;;5050200;28;20049;-73
2022/06/11 11:58:28;;;;;;;0.00;0.00;;;;;;;;;;5044191;28;21280;-74
2022/06/11 12:01:00;;;;;;;0.00;0.00;;;;;;;;;;5043309;28;20045;-73
2022/06/11 12:03:31;;;;;;;0.00;0.00;;;;;;;;;;5037600;28;20457;-76
2022/06/11 12:06:00;;;;;;;0.00;0.00;;;;;;;;;;5038112;28;20040;-75
2022/06/11 12:08:30;;;;;;;0.00;0.00;;;;;;;;;;5046972;28;20162;-76
2022/06/11 12:11:01;;;;;;;0.00;0.00;;;;;;;;;;5044671;28;20500;-76
2022/06/11 12:13:31;;;;;;;0.20;0.15;;;;;;;;;;5046657;28;20131;-76
2022/06/11 12:16:01;;;;;;;0.25;0.13;;;;;;;;;;5051585;28;20108;-74
2022/06/11 12:18:34;;;;;;;0.00;0.00;;;;;;;;;;5044861;28;20493;-75
2022/06/11 12:21:11;;;;;;;0.20;0.20;;;;;;;;;;5042909;28;20052;-76
2022/06/11 12:23:41;;;;;;;0.00;0.00;;;;;;;;;;5049657;28;20456;-74
2022/06/11 12:26:16;;;;;;;0.00;0.00;;;;;;;;;;5046443;28;20707;-74
2022/06/11 12:28:47;;;;;;;0.25;0.05;;;;;;;;;;5040810;28;20062;-74
2022/06/11 12:31:20;;;;;;;0.00;0.00;;;;;;;;;;5041019;28;20076;-70
2022/06/11 12:33:52;;;;;;;0.65;0.40;;;;;;;;;;5042850;28;20145;-71
2022/06/11 12:36:26;;;;;;;0.00;0.00;;;;;;;;;;5051417;28;20049;-71
2022/06/11 12:39:00;;;;;;;0.00;0.00;;;;;;;;;;5034326;28;20053;-71
2022/06/11 12:41:37;;;;;;;0.00;0.00;;;;;;;;;;5031622;28;20492;-71
2022/06/11 12:44:24;;;;;;;0.00;0.00;;;;;;;;;;5032227;28;20084;-71
2022/06/11 12:47:01;;;;;;;0.00;0.00;;;;;;;;;;5031336;28;20049;-71
2022/06/11 12:49:33;;;;;;;0.00;0.00;;;;;;;;;;5050645;28;20059;-71
2022/06/11 12:52:11;;;;;;;0.00;0.00;;;;;;;;;;5063175;28;20113;-71
2022/06/11 12:54:49;;;;;;;0.10;0.10;;;;;;;;;;5071685;28;20056;-70
2022/06/11 12:57:24;;;;;;;0.10;0.10;;;;;;;;;;5070850;28;20060;-70
2022/06/11 12:59:59;;;;;;;0.30;0.22;;;;;;;;;;5061284;28;20518;-70
2022/06/11 13:02:34;;;;;;;0.00;0.00;;;;;;;;;;5036201;28;20045;-70
2022/06/11 13:05:21;;;;;;;0.00;0.00;;;;;;;;;;5031443;28;20049;-69
2022/06/11 13:07:54;;;;;;;0.00;0.00;;;;;;;;;;5030782;28;20104;-69
2022/06/11 13:10:29;;;;;;;0.10;0.10;;;;;;;;;;5047837;28;20128;-71
2022/06/11 13:13:03;;;;;;;0.00;0.00;;;;;;;;;;5051581;28;20076;-71
2022/06/11 13:15:41;;;;;;;0.00;0.00;;;;;;;;;;5051644;28;20051;-71
2022/06/11 13:18:17;;;;;;;0.00;0.00;;;;;;;;;;5040621;28;20148;-71
2022/06/11 13:20:51;;;;;;;0.35;0.35;;;;;;;;;;5031396;28;20076;-71
2022/06/11 13:23:23;;;;;;;0.15;0.15;;;;;;;;;;5031176;28;20053;-71
2022/06/11 13:25:56;;;;;;;0.00;0.00;;;;;;;;;;5043143;28;20072;-71
2022/06/11 13:28:31;;;;;;;0.17;0.08;;;;;;;;;;5029911;28;20458;-71
2022/06/11 13:31:03;;;;;;;0.00;0.00;;;;;;;;;;5040471;28;20080;-71
2022/06/11 13:33:47;;;;;;;0.00;0.00;;;;;;;;;;5051322;28;20497;-71
2022/06/11 13:36:20;;;;;;;0.55;0.55;;;;;;;;;;5030804;28;20077;-71
2022/06/11 13:38:55;;;;;;;0.15;0.15;;;;;;;;;;5030362;28;20077;-70
2022/06/11 13:41:27;;;;;;;0.20;0.20;;;;;;;;;;5030432;28;20492;-71
2022/06/11 13:44:06;;;;;;;0.00;0.00;;;;;;;;;;5031789;28;20080;-71
2022/06/11 13:46:43;;;;;;;0.10;0.10;;;;;;;;;;5031112;28;20068;-71
2022/06/11 13:49:25;;;;;;;0.00;0.00;;;;;;;;;;5026884;28;20056;-69
2022/06/11 13:51:56;;;;;;;0.10;0.10;;;;;;;;;;5047395;28;20120;-69
2022/06/11 13:57:30;;;;;;;0.00;0.00;;;;;;;;;;5030056;28;20099;-71
2022/06/11 14:00:04;;;;;;;0.30;0.30;;;;;;;;;;5031624;28;20049;-70
2022/06/11 14:03:06;;;;;;;0.00;0.00;;;;;;;;;;5034036;28;20133;-70
2022/06/11 14:05:36;;;;;;;0.10;0.10;;;;;;;;;;5034283;28;20157;-71
2022/06/11 14:08:06;;;;;;;0.05;0.05;;;;;;;;;;5033748;28;20446;-69
2022/06/11 14:10:38;;;;;;;0.00;0.00;;;;;;;;;;5033725;28;20049;-69
2022/06/11 14:13:08;;;;;;;0.00;0.00;;;;;;;;;;5044291;28;20044;-70
2022/06/11 14:15:39;;;;;;;0.00;0.00;;;;;;;;;;5054297;28;20400;-69
2022/06/11 14:18:26;;;;;;;0.00;0.00;;;;;;;;;;5053303;28;20135;-71
2022/06/11 14:20:56;;;;;;;0.00;0.00;;;;;;;;;;5051681;28;20037;-68
2022/06/11 14:23:44;;;;;;;0.05;0.05;;;;;;;;;;5053562;28;20486;-69
2022/06/11 14:26:31;;;;;;;0.63;0.63;;;;;;;;;;5048806;28;20065;-70
2022/06/11 14:29:02;;;;;;;0.00;0.00;;;;;;;;;;5038257;28;20077;-69
2022/06/11 14:31:49;;;;;;;0.00;0.00;;;;;;;;;;5052021;28;20575;-70
2022/06/11 14:34:21;;;;;;;0.00;0.00;;;;;;;;;;5053853;28;20083;-70
2022/06/11 14:37:04;;;;;;;0.20;0.20;;;;;;;;;;5052903;28;20432;-71
2022/06/11 14:39:33;;;;;;;0.00;0.00;;;;;;;;;;5051187;28;20053;-69
2022/06/11 14:42:10;;;;;;;0.55;0.55;;;;;;;;;;5053874;28;20061;-70
2022/06/11 14:44:41;;;;;;;0.00;0.00;;;;;;;;;;5036777;28;20045;-69
2022/06/11 14:47:48;;;;;;;0.20;0.20;;;;;;;;;;5032937;28;20503;-69
2022/06/11 14:50:46;;;;;;;0.00;0.00;;;;;;;;;;5033315;28;20049;-70
2022/06/11 14:53:19;;;;;;;0.08;0.08;;;;;;;;;;4971299;28;20473;-70
2022/06/11 14:55:49;;;;;;;0.00;0.00;;;;;;;;;;5005520;28;20477;-71
2022/06/11 14:58:36;;;;;;;0.00;0.00;;;;;;;;;;5031929;28;20061;-71
2022/06/11 15:01:22;;;;;;;0.00;0.00;;;;;;;;;;5032711;28;20057;-71
2022/06/11 15:04:02;;;;;;;0.43;0.43;;;;;;;;;;5033357;28;20049;-69
2022/06/11 15:06:37;;;;;;;0.17;0.17;;;;;;;;;;5032836;28;20077;-70
2022/06/11 15:09:05;;;;;;;;;;;;;;;;;;5033128;28;20497;-70
2022/06/11 15:11:41;;;;;;;0.00;0.00;;;;;;;;;;5032354;28;19921;-70
2022/06/11 15:14:18;;;;;;;0.05;0.05;;;;;;;;;;5030266;28;20103;-70
2022/06/11 15:16:48;;;;;;;0.00;0.00;;;;;;;;;;5030944;28;20087;-71
2022/06/11 15:19:18;;;;;;;0.00;0.00;;;;;;;;;;5032966;28;20088;-70